Terminal Aerodrome Forecast
Issued by NWS

Home | Current Version | Previous Version | Text Only | Print | Product List | Glossary On
Versions: 1 2 3 4 5 6 7 8 9 10 11 12 13 14 15 16 17 18 19 20 21 22 23 24 25 26 27 28 29 30 31 32
000
FTUS42 KCAE 171100
TAFDNL
TAF
KDNL 171130Z 1712/1812 05007KT P6SM SCT040 BKN250
     FM171400 06012KT P6SM SCT040 BKN250
     FM180600 06005KT P6SM BKN025=

USA.gov is the U.S. government's official web portal to all federal, state and local government web resources and services.